createdAt,value
2019-06-27T00:00:01.912Z,5.37
2019-06-27T00:02:30.313Z,5.13
2019-06-27T00:04:58.746Z,5.17
2019-06-27T00:07:27.250Z,5.50
2019-06-27T00:09:55.655Z,5.47
2019-06-27T00:12:24.062Z,5.20
2019-06-27T00:14:52.509Z,6.00
2019-06-27T00:17:20.912Z,5.77
2019-06-27T00:19:49.376Z,5.60
2019-06-27T00:22:17.928Z,5.57
2019-06-27T00:24:46.314Z,5.33
2019-06-27T00:27:14.714Z,5.60
2019-06-27T00:29:43.258Z,5.37
2019-06-27T00:32:11.670Z,6.00
2019-06-27T00:34:40.079Z,5.40
2019-06-27T00:37:08.512Z,5.63
2019-06-27T00:39:36.946Z,5.37
2019-06-27T00:42:05.344Z,5.90
2019-06-27T00:44:33.793Z,5.07
2019-06-27T00:47:02.196Z,5.80
2019-06-27T00:49:30.596Z,5.87
2019-06-27T00:51:59.020Z,5.77
2019-06-27T00:54:27.521Z,5.67
2019-06-27T00:57:04.022Z,6.53
2019-06-27T00:59:26.041Z,4.77
2019-06-27T01:01:54.442Z,5.53
2019-06-27T01:04:22.861Z,5.60
2019-06-27T01:06:54.285Z,5.40
2019-06-27T01:09:22.686Z,5.57
2019-06-27T01:11:51.156Z,5.30
2019-06-27T01:14:19.798Z,5.43
2019-06-27T01:16:48.268Z,5.57
2019-06-27T01:19:16.670Z,5.63
2019-06-27T01:21:45.242Z,5.53
2019-06-27T01:24:13.645Z,5.37
2019-06-27T01:26:42.044Z,5.70
2019-06-27T01:29:10.576Z,5.87
2019-06-27T01:31:38.976Z,5.60
2019-06-27T01:34:07.499Z,4.87
2019-06-27T01:36:36.039Z,6.10
2019-06-27T01:39:05.576Z,6.07
2019-06-27T01:41:33.978Z,5.43
2019-06-27T01:44:02.440Z,5.27
2019-06-27T01:46:30.845Z,5.87
2019-06-27T01:48:59.242Z,5.20
2019-06-27T01:51:27.828Z,5.40
2019-06-27T01:53:56.260Z,5.40
2019-06-27T01:56:24.636Z,5.50
2019-06-27T01:58:53.177Z,5.83
2019-06-27T02:01:21.656Z,5.70
2019-06-27T02:03:50.060Z,5.30
2019-06-27T02:06:18.499Z,6.03
2019-06-27T02:08:46.898Z,5.57
2019-06-27T02:11:15.301Z,5.40
2019-06-27T02:13:43.859Z,5.57
2019-06-27T02:16:12.332Z,5.50
2019-06-27T02:18:40.734Z,5.63
2019-06-27T02:21:09.165Z,5.60
2019-06-27T02:23:37.617Z,6.13
2019-06-27T02:26:05.971Z,5.37
2019-06-27T02:28:34.433Z,5.30
2019-06-27T02:31:02.839Z,5.63
2019-06-27T02:33:31.241Z,4.97
2019-06-27T02:35:59.665Z,5.47
2019-06-27T02:38:28.076Z,5.67
2019-06-27T02:40:58.693Z,5.83
2019-06-27T02:43:26.748Z,5.80
2019-06-27T02:45:55.143Z,5.30
2019-06-27T02:48:23.551Z,5.90
2019-06-27T02:50:51.999Z,5.13
2019-06-27T02:53:20.406Z,5.80
2019-06-27T02:55:48.801Z,6.07
2019-06-27T02:58:29.830Z,5.63
2019-06-27T03:00:47.431Z,5.30
2019-06-27T03:03:15.822Z,5.50
2019-06-27T03:05:44.250Z,6.13
2019-06-27T03:08:12.738Z,5.00
2019-06-27T03:10:41.198Z,5.47
2019-06-27T03:13:09.624Z,5.63
2019-06-27T03:15:38.112Z,6.03
2019-06-27T03:18:06.518Z,5.93
2019-06-27T03:20:34.950Z,5.50
2019-06-27T03:23:03.369Z,6.33
2019-06-27T03:25:31.745Z,5.97
2019-06-27T03:28:00.201Z,5.77
2019-06-27T03:30:28.599Z,5.80
2019-06-27T03:32:57.072Z,6.23
2019-06-27T03:35:25.635Z,6.00
2019-06-27T03:37:54.036Z,6.00
2019-06-27T03:40:22.571Z,6.13
2019-06-27T03:42:51.103Z,6.10
2019-06-27T03:45:21.051Z,6.10
2019-06-27T03:47:49.457Z,6.37
2019-06-27T03:50:17.874Z,6.17
2019-06-27T03:52:46.354Z,5.87
2019-06-27T03:55:14.815Z,6.43
2019-06-27T03:57:45.301Z,6.30
2019-06-27T04:00:16.426Z,6.27
2019-06-27T04:02:44.819Z,6.00
2019-06-27T04:05:13.253Z,6.17
2019-06-27T04:07:41.657Z,6.20
2019-06-27T04:10:10.246Z,6.93
2019-06-27T04:12:38.674Z,6.23
2019-06-27T04:15:28.582Z,6.10
2019-06-27T04:17:57.004Z,6.57
2019-06-27T04:20:25.479Z,6.20
2019-06-27T04:22:53.881Z,6.63
2019-06-27T04:25:22.323Z,6.30
2019-06-27T04:27:50.737Z,5.93
2019-06-27T04:30:19.471Z,5.80
2019-06-27T04:32:47.958Z,6.07
2019-06-27T04:35:16.436Z,5.20
2019-06-27T04:37:44.834Z,5.80
2019-06-27T04:40:13.466Z,5.50
2019-06-27T04:42:41.936Z,5.37
2019-06-27T04:45:10.439Z,6.03
2019-06-27T04:47:39.049Z,6.03
2019-06-27T04:50:07.554Z,6.57
2019-06-27T04:52:36.220Z,5.43
2019-06-27T04:55:06.706Z,6.27
2019-06-27T04:57:35.128Z,6.50
2019-06-27T05:00:04.451Z,6.27
2019-06-27T05:02:35.015Z,5.80
2019-06-27T05:05:03.495Z,6.57
2019-06-27T05:07:31.905Z,6.40
2019-06-27T05:10:00.356Z,6.27
2019-06-27T05:12:28.768Z,5.63
2019-06-27T05:14:57.162Z,5.77
2019-06-27T05:17:25.584Z,6.30
2019-06-27T05:19:53.986Z,5.97
2019-06-27T05:22:22.388Z,6.33
2019-06-27T05:24:50.816Z,7.00
2019-06-27T05:27:19.268Z,6.60
2019-06-27T05:29:47.665Z,6.47
2019-06-27T05:32:16.098Z,6.40
2019-06-27T05:34:44.604Z,6.27
2019-06-27T05:37:13.092Z,5.63
2019-06-27T05:39:41.533Z,6.07
2019-06-27T05:42:10.088Z,5.93
2019-06-27T05:44:38.490Z,6.03
2019-06-27T05:47:06.916Z,6.30
2019-06-27T05:49:35.326Z,5.93
2019-06-27T05:52:03.795Z,6.20
2019-06-27T05:54:32.325Z,5.73
2019-06-27T05:57:00.708Z,5.87
2019-06-27T05:59:29.156Z,5.50
2019-06-27T06:01:57.667Z,5.60
2019-06-27T06:04:26.064Z,5.70
2019-06-27T06:06:54.471Z,5.83
2019-06-27T06:09:23.015Z,6.13
2019-06-27T06:11:51.548Z,6.20
2019-06-27T06:14:19.957Z,6.27
2019-06-27T06:16:48.378Z,6.00
2019-06-27T06:19:16.842Z,5.57
2019-06-27T06:21:45.248Z,5.97
2019-06-27T06:24:13.791Z,6.30
2019-06-27T06:26:42.207Z,6.23
2019-06-27T06:29:10.659Z,5.90
2019-06-27T06:31:39.334Z,6.47
2019-06-27T06:34:07.750Z,6.30
2019-06-27T06:36:36.151Z,7.23
2019-06-27T06:39:05.604Z,6.10
2019-06-27T06:41:34.032Z,6.40
2019-06-27T06:44:02.698Z,6.33
2019-06-27T06:46:31.114Z,6.10
2019-06-27T06:48:59.519Z,6.43
2019-06-27T06:51:27.919Z,6.53
2019-06-27T06:53:56.472Z,6.20
2019-06-27T06:56:24.896Z,6.33
2019-06-27T06:58:53.310Z,5.77
2019-06-27T07:01:21.836Z,5.80
2019-06-27T07:03:50.249Z,6.37
2019-06-27T07:06:18.655Z,6.33
2019-06-27T07:08:47.200Z,6.33
2019-06-27T07:11:15.707Z,6.67
2019-06-27T07:13:44.083Z,6.77
2019-06-27T07:16:12.538Z,5.80
2019-06-27T07:18:40.929Z,6.43
2019-06-27T07:21:09.348Z,6.20
2019-06-27T07:23:37.765Z,6.00
2019-06-27T07:26:06.161Z,6.13
2019-06-27T07:28:34.563Z,6.00
2019-06-27T07:31:16.836Z,6.07
2019-06-27T07:33:33.156Z,5.80
2019-06-27T07:36:01.558Z,6.70
2019-06-27T07:38:29.989Z,6.47
2019-06-27T07:40:58.397Z,6.40
2019-06-27T07:43:26.790Z,6.13
2019-06-27T07:45:55.387Z,6.23
2019-06-27T07:48:23.848Z,6.40
2019-06-27T07:50:52.252Z,6.57
2019-06-27T07:53:20.688Z,6.20
2019-06-27T07:55:49.184Z,6.50
2019-06-27T07:58:17.577Z,6.50
2019-06-27T08:00:46.012Z,5.93
2019-06-27T08:03:14.411Z,6.33
2019-06-27T08:05:42.809Z,6.30
2019-06-27T08:08:11.237Z,6.87
2019-06-27T08:10:39.770Z,7.37
2019-06-27T08:13:08.118Z,6.60
2019-06-27T08:15:36.662Z,6.27
2019-06-27T08:18:05.060Z,6.50
2019-06-27T08:20:33.468Z,7.13
2019-06-27T08:23:01.959Z,6.33
2019-06-27T08:25:30.350Z,5.93
2019-06-27T08:27:58.821Z,6.77
2019-06-27T08:30:27.704Z,7.20
2019-06-27T08:32:56.115Z,7.07
2019-06-27T08:35:24.592Z,7.10
2019-06-27T08:37:53.011Z,6.53
2019-06-27T08:40:21.594Z,6.80
2019-06-27T08:42:50.053Z,6.67
2019-06-27T08:45:20.353Z,6.77
2019-06-27T08:47:48.786Z,7.03
2019-06-27T08:50:17.830Z,6.03
2019-06-27T08:52:46.404Z,6.53
2019-06-27T08:55:15.041Z,6.20
2019-06-27T08:57:43.450Z,5.90
2019-06-27T09:00:13.589Z,6.30
2019-06-27T09:02:42.064Z,6.90
2019-06-27T09:05:11.390Z,7.00
2019-06-27T09:07:39.846Z,8.33
2019-06-27T09:10:08.971Z,7.17
2019-06-27T09:12:37.379Z,8.90
2019-06-27T09:15:07.118Z,7.00
2019-06-27T09:17:36.122Z,7.17
2019-06-27T09:20:07.371Z,6.80
2019-06-27T09:22:35.796Z,6.50
2019-06-27T09:25:06.644Z,6.50
2019-06-27T09:27:35.043Z,6.00
2019-06-27T09:30:07.960Z,7.40
2019-06-27T09:32:36.388Z,6.37
2019-06-27T09:35:06.707Z,6.87
2019-06-27T09:37:35.113Z,6.70
2019-06-27T09:40:05.366Z,6.57
2019-06-27T09:42:33.787Z,6.10
2019-06-27T09:45:02.339Z,6.50
2019-06-27T09:47:30.745Z,6.47
2019-06-27T09:49:59.138Z,6.70
2019-06-27T09:52:27.845Z,6.57
2019-06-27T09:54:56.826Z,6.60
2019-06-27T09:57:25.223Z,6.27
2019-06-27T09:59:53.665Z,6.87
2019-06-27T10:02:22.070Z,6.12
2019-06-27T10:04:50.545Z,6.22
2019-06-27T10:07:18.967Z,7.03
2019-06-27T10:09:47.377Z,5.97
2019-06-27T10:12:15.800Z,5.72
2019-06-27T10:14:44.231Z,6.05
2019-06-27T10:17:12.628Z,6.58
2019-06-27T10:19:41.720Z,7.20
2019-06-27T10:22:10.176Z,7.25
2019-06-27T10:24:38.591Z,6.65
2019-06-27T10:27:08.640Z,6.47
2019-06-27T10:29:37.078Z,6.85
2019-06-27T10:32:05.554Z,6.87
2019-06-27T10:34:33.954Z,7.03
2019-06-27T10:37:02.431Z,6.80
2019-06-27T10:39:30.858Z,6.47
2019-06-27T10:41:59.235Z,7.08
2019-06-27T10:44:27.673Z,6.05
2019-06-27T10:46:56.061Z,6.62
2019-06-27T10:49:24.459Z,6.47
2019-06-27T10:51:53.043Z,6.60
2019-06-27T10:54:21.441Z,6.92
2019-06-27T10:56:49.850Z,6.70
2019-06-27T10:59:18.459Z,7.67
2019-06-27T11:01:46.871Z,7.60
2019-06-27T11:04:15.276Z,8.23
2019-06-27T11:06:43.691Z,6.25
2019-06-27T11:09:14.324Z,7.53
2019-06-27T11:11:42.217Z,7.45
2019-06-27T11:14:11.012Z,6.97
2019-06-27T11:16:39.409Z,7.05
2019-06-27T11:19:07.809Z,7.12
2019-06-27T11:21:36.329Z,7.50
2019-06-27T11:24:04.797Z,8.58
2019-06-27T11:26:33.278Z,6.67
2019-06-27T11:29:01.911Z,6.85
2019-06-27T11:31:30.288Z,7.40
2019-06-27T11:33:58.710Z,7.58
2019-06-27T11:36:27.129Z,7.33
2019-06-27T11:38:55.528Z,6.62
2019-06-27T11:41:23.934Z,6.12
2019-06-27T11:43:52.368Z,6.30
2019-06-27T11:46:20.764Z,6.10
2019-06-27T11:48:49.257Z,5.92
2019-06-27T11:51:17.697Z,6.67
2019-06-27T11:53:46.249Z,7.60
2019-06-27T11:56:14.651Z,6.30
2019-06-27T11:58:43.098Z,6.30
2019-06-27T12:01:11.497Z,6.20
2019-06-27T12:03:49.479Z,6.10
2019-06-27T12:06:10.076Z,6.10
2019-06-27T12:08:38.487Z,6.75
2019-06-27T12:11:06.923Z,6.47
2019-06-27T12:13:35.493Z,6.33
2019-06-27T12:16:03.929Z,5.97
2019-06-27T12:18:32.329Z,6.62
2019-06-27T12:21:05.775Z,7.20
2019-06-27T12:23:32.435Z,6.75
2019-06-27T12:26:00.836Z,7.47
2019-06-27T12:28:29.290Z,6.45
2019-06-27T12:30:57.695Z,6.20
2019-06-27T12:33:26.103Z,6.55
2019-06-27T12:35:54.533Z,7.58
2019-06-27T12:38:22.933Z,7.03
2019-06-27T12:40:51.344Z,12.53
2019-06-27T12:43:19.759Z,8.15
2019-06-27T12:45:48.157Z,7.78
2019-06-27T12:48:16.563Z,7.33
2019-06-27T12:50:45.250Z,7.45
2019-06-27T12:53:13.658Z,7.58
2019-06-27T12:55:42.055Z,7.87
2019-06-27T12:58:10.496Z,8.15
2019-06-27T13:00:39.440Z,8.48
2019-06-27T13:03:07.837Z,8.58
2019-06-27T13:05:36.272Z,7.80
2019-06-27T13:08:04.748Z,8.13
2019-06-27T13:10:36.353Z,7.50
2019-06-27T13:13:05.152Z,7.70
2019-06-27T13:15:33.993Z,7.35
2019-06-27T13:18:02.525Z,7.65
2019-06-27T13:20:31.205Z,8.30
2019-06-27T13:22:59.605Z,8.75
2019-06-27T13:25:28.009Z,7.85
2019-06-27T13:27:56.545Z,8.38
2019-06-27T13:30:25.192Z,8.35
2019-06-27T13:32:53.661Z,8.20
2019-06-27T13:35:22.091Z,8.03
2019-06-27T13:37:50.494Z,8.48
2019-06-27T13:40:19.829Z,8.18
2019-06-27T13:42:48.533Z,8.25
2019-06-27T13:45:17.220Z,8.33
2019-06-27T13:47:45.760Z,7.75
2019-06-27T13:50:15.066Z,7.85
2019-06-27T13:52:43.455Z,7.92
2019-06-27T13:55:12.093Z,8.13
2019-06-27T13:57:40.545Z,7.22
2019-06-27T14:00:10.964Z,8.85
2019-06-27T14:02:39.309Z,8.80
2019-06-27T14:05:08.303Z,7.92
2019-06-27T14:07:36.701Z,7.62
2019-06-27T14:10:09.641Z,7.85
2019-06-27T14:12:38.080Z,7.50
2019-06-27T14:15:08.222Z,7.47
2019-06-27T14:17:36.620Z,8.95
2019-06-27T14:20:07.401Z,8.43
2019-06-27T14:22:35.797Z,9.18
2019-06-27T14:25:07.339Z,9.08
2019-06-27T14:27:35.775Z,9.23
2019-06-27T14:30:08.288Z,8.53
2019-06-27T14:32:38.332Z,9.25
2019-06-27T14:35:15.225Z,9.63
2019-06-27T14:37:37.244Z,9.55
2019-06-27T14:40:11.740Z,9.00
2019-06-27T14:42:40.141Z,8.68
2019-06-27T14:45:08.886Z,8.65
2019-06-27T14:47:37.423Z,10.28
2019-06-27T14:50:06.613Z,12.05
2019-06-27T14:52:35.230Z,8.88
2019-06-27T14:55:06.724Z,8.65
2019-06-27T14:57:35.548Z,8.75
2019-06-27T15:00:05.755Z,8.15
2019-06-27T15:02:34.339Z,8.45
2019-06-27T15:05:02.741Z,8.70
2019-06-27T15:07:31.141Z,9.23
2019-06-27T15:09:59.681Z,8.93
2019-06-27T15:12:28.084Z,9.43
2019-06-27T15:14:56.500Z,8.88
2019-06-27T15:17:24.940Z,8.75
2019-06-27T15:19:53.347Z,10.35
2019-06-27T15:22:21.747Z,8.58
2019-06-27T15:24:50.193Z,8.53
2019-06-27T15:27:18.603Z,8.85
2019-06-27T15:29:46.989Z,8.38
2019-06-27T15:32:15.425Z,8.80
2019-06-27T15:34:44.128Z,8.03
2019-06-27T15:37:12.548Z,8.40
2019-06-27T15:39:42.719Z,7.72
2019-06-27T15:42:11.120Z,8.15
2019-06-27T15:44:39.524Z,8.10
2019-06-27T15:47:07.977Z,8.25
2019-06-27T15:49:36.376Z,8.58
2019-06-27T15:52:04.813Z,8.28
2019-06-27T15:54:33.289Z,8.10
2019-06-27T15:57:01.698Z,8.50
2019-06-27T15:59:30.094Z,9.10
2019-06-27T16:01:58.513Z,9.23
2019-06-27T16:04:32.801Z,8.40
2019-06-27T16:06:57.055Z,8.48
2019-06-27T16:09:25.694Z,9.00
2019-06-27T16:11:54.105Z,8.75
2019-06-27T16:14:22.572Z,9.40
2019-06-27T16:16:51.170Z,9.23
2019-06-27T16:19:19.581Z,8.80
2019-06-27T16:21:47.991Z,8.63
2019-06-27T16:24:16.436Z,8.40
2019-06-27T16:26:44.840Z,8.63
2019-06-27T16:29:13.322Z,10.58
2019-06-27T16:31:41.764Z,9.73
2019-06-27T16:34:10.164Z,9.43
2019-06-27T16:36:38.576Z,9.10
2019-06-27T16:39:07.278Z,9.05
2019-06-27T16:41:35.693Z,9.15
2019-06-27T16:44:04.172Z,9.63
2019-06-27T16:46:32.773Z,9.33
2019-06-27T16:49:01.179Z,8.60
2019-06-27T16:51:29.584Z,8.63
2019-06-27T16:53:58.004Z,8.50
2019-06-27T16:56:26.410Z,8.60
2019-06-27T16:58:55.092Z,9.65
2019-06-27T17:01:23.540Z,9.10
2019-06-27T17:03:52.020Z,8.33
2019-06-27T17:06:20.381Z,8.50
2019-06-27T17:08:48.899Z,8.63
2019-06-27T17:11:17.303Z,7.92
2019-06-27T17:13:45.699Z,8.60
2019-06-27T17:16:14.143Z,9.03
2019-06-27T17:18:42.544Z,8.63
2019-06-27T17:21:11.025Z,8.45
2019-06-27T17:23:39.460Z,8.30
2019-06-27T17:26:11.488Z,8.33
2019-06-27T17:28:38.033Z,8.53
2019-06-27T17:31:06.491Z,8.45
2019-06-27T17:33:36.526Z,9.10
2019-06-27T17:36:05.006Z,8.88
2019-06-27T17:38:33.545Z,8.83
2019-06-27T17:41:01.944Z,8.85
2019-06-27T17:43:30.349Z,8.60
2019-06-27T17:45:58.866Z,7.95
2019-06-27T17:48:27.258Z,16.25
2019-06-27T17:50:55.669Z,9.00
2019-06-27T17:53:24.088Z,7.97
2019-06-27T17:55:52.500Z,8.38
2019-06-27T17:58:21.015Z,8.38
2019-06-27T18:00:49.665Z,8.10
2019-06-27T18:03:18.071Z,8.58
2019-06-27T18:05:46.590Z,8.90
2019-06-27T18:08:15.157Z,8.25
2019-06-27T18:10:43.554Z,7.95
2019-06-27T18:13:11.953Z,8.38
2019-06-27T18:15:40.448Z,8.55
2019-06-27T18:18:08.851Z,9.33
2019-06-27T18:20:38.017Z,8.25
2019-06-27T18:23:06.549Z,11.12
2019-06-27T18:25:34.943Z,8.50
2019-06-27T18:28:04.753Z,9.20
2019-06-27T18:30:33.269Z,9.25
2019-06-27T18:33:01.675Z,8.83
2019-06-27T18:35:30.091Z,8.75
2019-06-27T18:37:58.538Z,9.60
2019-06-27T18:40:28.214Z,10.35
2019-06-27T18:42:56.525Z,9.70
2019-06-27T18:45:25.015Z,10.72
2019-06-27T18:47:53.487Z,8.65
2019-06-27T18:50:21.891Z,8.65
2019-06-27T18:52:50.335Z,8.70
2019-06-27T18:55:18.809Z,9.28
2019-06-27T18:57:47.217Z,8.85
2019-06-27T19:00:15.982Z,8.93
2019-06-27T19:02:44.453Z,9.13
2019-06-27T19:05:13.195Z,9.03
2019-06-27T19:07:45.818Z,9.00
2019-06-27T19:10:11.937Z,9.23
2019-06-27T19:12:40.442Z,8.60
2019-06-27T19:15:11.076Z,12.00
2019-06-27T19:17:39.544Z,9.53
2019-06-27T19:20:25.695Z,8.85
2019-06-27T19:22:58.731Z,11.45
2019-06-27T19:25:28.781Z,9.73
2019-06-27T19:27:57.202Z,9.93
2019-06-27T19:30:25.601Z,8.47
2019-06-27T19:32:54.103Z,9.10
2019-06-27T19:35:22.639Z,8.30
2019-06-27T19:38:01.483Z,7.47
2019-06-27T19:40:21.508Z,8.17
2019-06-27T19:42:52.287Z,8.83
2019-06-27T19:45:21.032Z,8.73
2019-06-27T19:47:49.504Z,7.87
2019-06-27T19:50:18.287Z,7.27
2019-06-27T19:52:46.765Z,9.43
2019-06-27T19:55:15.299Z,7.37
2019-06-27T19:57:43.894Z,7.90
2019-06-27T20:00:12.925Z,7.10
2019-06-27T20:02:41.334Z,7.80
2019-06-27T20:05:10.112Z,8.37
2019-06-27T20:07:38.514Z,8.13
2019-06-27T20:10:11.510Z,7.43
2019-06-27T20:12:38.301Z,8.00
2019-06-27T20:15:07.751Z,6.87
2019-06-27T20:17:36.309Z,7.90
2019-06-27T20:20:06.452Z,7.63
2019-06-27T20:22:34.863Z,6.57
2019-06-27T20:25:03.268Z,6.27
2019-06-27T20:27:31.773Z,6.63
2019-06-27T20:30:00.175Z,5.90
2019-06-27T20:32:29.430Z,5.57
2019-06-27T20:34:58.052Z,5.60
2019-06-27T20:37:27.147Z,5.90
2019-06-27T20:39:55.728Z,5.93
2019-06-27T20:42:24.179Z,6.77
2019-06-27T20:44:52.578Z,6.73
2019-06-27T20:47:21.054Z,6.60
2019-06-27T20:49:49.548Z,6.63
2019-06-27T20:52:17.960Z,6.70
2019-06-27T20:54:46.382Z,6.20
2019-06-27T20:57:14.807Z,6.00
2019-06-27T20:59:43.205Z,5.80
2019-06-27T21:02:11.619Z,5.60
2019-06-27T21:04:40.082Z,5.67
2019-06-27T21:07:09.949Z,5.87
2019-06-27T21:09:38.640Z,5.67
2019-06-27T21:12:07.143Z,6.90
2019-06-27T21:14:35.543Z,5.07
2019-06-27T21:17:04.012Z,4.97
2019-06-27T21:19:32.464Z,4.40
2019-06-27T21:22:00.952Z,4.17
2019-06-27T21:24:29.365Z,4.13
2019-06-27T21:26:57.797Z,4.20
2019-06-27T21:29:26.189Z,3.80
2019-06-27T21:31:54.824Z,4.03
2019-06-27T21:34:23.302Z,3.77
2019-06-27T21:36:51.696Z,3.60
2019-06-27T21:39:20.084Z,3.70
2019-06-27T21:41:48.568Z,3.47
2019-06-27T21:44:16.914Z,3.57
2019-06-27T21:46:45.335Z,3.70
2019-06-27T21:49:13.770Z,4.03
2019-06-27T21:51:42.165Z,3.50
2019-06-27T21:54:10.581Z,3.27
2019-06-27T21:56:39.017Z,3.00
2019-06-27T21:59:07.421Z,2.77
2019-06-27T22:01:35.831Z,2.40
2019-06-27T22:04:04.318Z,2.50
2019-06-27T22:06:32.860Z,2.50
2019-06-27T22:09:01.262Z,2.70
2019-06-27T22:11:29.824Z,2.93
2019-06-27T22:13:58.366Z,2.50
2019-06-27T22:16:26.839Z,2.20
2019-06-27T22:18:55.288Z,2.43
2019-06-27T22:21:23.676Z,2.53
2019-06-27T22:23:53.716Z,3.93
2019-06-27T22:26:23.017Z,11.33
2019-06-27T22:28:51.417Z,6.90
2019-06-27T22:31:19.810Z,2.20
2019-06-27T22:33:48.228Z,6.73
2019-06-27T22:36:16.711Z,5.70
2019-06-27T22:39:03.367Z,14.73
2019-06-27T22:41:49.609Z,2.03
2019-06-27T22:44:36.156Z,2.83
2019-06-27T22:47:22.648Z,6.37
2019-06-27T22:49:52.323Z,4.97
2019-06-27T22:52:34.005Z,2.00
2019-06-27T22:55:10.289Z,1.90
2019-06-27T22:57:38.673Z,2.20
2019-06-27T23:00:07.334Z,1.70
2019-06-27T23:02:35.761Z,1.70
2019-06-27T23:05:05.691Z,1.90
2019-06-27T23:07:34.098Z,1.80
2019-06-27T23:10:02.585Z,1.70
2019-06-27T23:12:31.056Z,1.77
2019-06-27T23:14:59.449Z,1.87
2019-06-27T23:17:28.014Z,1.77
2019-06-27T23:19:56.406Z,1.80
2019-06-27T23:22:24.811Z,1.80
2019-06-27T23:24:53.246Z,1.63
2019-06-27T23:27:21.642Z,1.70
2019-06-27T23:29:50.043Z,1.90
2019-06-27T23:32:18.456Z,2.00
2019-06-27T23:34:46.854Z,1.70
2019-06-27T23:37:15.318Z,1.63
2019-06-27T23:39:43.750Z,1.70
2019-06-27T23:42:12.148Z,1.90
2019-06-27T23:44:40.550Z,1.90
2019-06-27T23:47:08.975Z,1.90
2019-06-27T23:49:37.376Z,2.00
2019-06-27T23:52:06.140Z,2.20
2019-06-27T23:54:34.569Z,2.10
2019-06-27T23:57:02.971Z,1.97
2019-06-27T23:59:31.368Z,1.80
